Cape Express — HO5337 — position and weather

sailwx.info

Track history (hours):
 
Tides and Currents Weather Stations Pressure Air Temp Water Temp Dewpoint Dewpoint Depression Visibility Wind Speed Wind Dir Waves Ship Positions

Cape Express

Last reported at 2014-Dec-20 19:29 UTC. Time now 2014-Dec-21 05:29 UTC.
Position N 25°50' W 079°35'.

Length 29 m; draft 2.2 m.

Type: Cargo ship. MMSI: 370269000.

Date/timePositionNaut miles runAvg speedWind from/ knotsBaromVisibWave heightAir tempDewpointWater temp
2014-Dec-20 19:29N 25°50' W 079°35'8 9.1
2014-Dec-20 18:33N 25°54' W 079°43'9 8.5
2014-Dec-20 17:33N 25°59' W 079°51'8 8.4
2014-Dec-20 16:33N 26°03' W 079°59'7 6.8
2014-Dec-20 15:33N 26°04' W 080°07'1 1.0
2014-Dec-20 14:33N 26°04' W 080°08'0 0.0
2014-Dec-20 13:33N 26°04' W 080°08'0 0.0
2014-Dec-20 12:33N 26°04' W 080°08'0 0.0
2014-Dec-20 11:33N 26°04' W 080°08'0 0.0
2014-Dec-20 10:33N 26°04' W 080°08'0 0.0
2014-Dec-20 09:33N 26°04' W 080°08'0 0.0
2014-Dec-20 08:33N 26°04' W 080°08'0 0.0
2014-Dec-20 07:33N 26°04' W 080°08'0 0.0
2014-Dec-20 06:33N 26°04' W 080°08'0 0.0
2014-Dec-20 05:33N 26°04' W 080°08'0 0.0
2014-Dec-20 04:33N 26°04' W 080°08'0 0.0
2014-Dec-20 03:33N 26°04' W 080°08'2 2.2
2014-Dec-20 02:33N 26°06' W 080°07'1111.1
2014-Dec-20 01:33N 26°01' W 079°56'1212.0
2014-Dec-20 00:33N 25°54' W 079°44'6 0.2
2014-Dec-18 18:33N 25°49' W 079°41'9 8.6
2014-Dec-18 17:33N 25°54' W 079°49'8 8.3
2014-Dec-18 16:33N 25°60' W 079°56'9 8.8
2014-Dec-18 15:33N 26°05' W 080°04'3 3.5
2014-Dec-18 14:33N 26°04' W 080°08'0 0.0
2014-Dec-18 13:33N 26°04' W 080°08'0 0.0
2014-Dec-18 12:33N 26°04' W 080°08'0 0.0
2014-Dec-18 11:33N 26°04' W 080°08'0 0.0
2014-Dec-18 10:33N 26°04' W 080°08'0 0.0
2014-Dec-18 09:33N 26°04' W 080°08'0 0.0
2014-Dec-18 08:33N 26°04' W 080°08'0 0.0
2014-Dec-18 07:33N 26°04' W 080°08'0 0.0
2014-Dec-18 06:33N 26°04' W 080°08'0 0.0
2014-Dec-18 05:33N 26°04' W 080°08'0 0.0
2014-Dec-18 04:33N 26°04' W 080°08'0 0.0
2014-Dec-18 03:33N 26°04' W 080°08'0 0.0
2014-Dec-18 02:33N 26°04' W 080°08'0 0.0
2014-Dec-18 01:33N 26°04' W 080°08'0 0.0
2014-Dec-18 00:33N 26°04' W 080°08'0 0.0
2014-Dec-17 23:33N 26°04' W 080°08'1 1.3
2014-Dec-17 22:33N 26°05' W 080°07'8 8.0
2014-Dec-17 21:33N 26°02' W 079°58'1010.2
2014-Dec-17 20:33N 25°57' W 079°48'1010.2
2014-Dec-17 19:33N 25°52' W 079°38'5 0.6
2014-Dec-17 11:33N 25°49' W 079°34'9 8.8
2014-Dec-17 10:33N 25°53' W 079°43'8 7.6
2014-Dec-17 09:33N 25°57' W 079°50'8 7.9
2014-Dec-17 08:33N 26°01' W 079°57'9 9.1
2014-Dec-17 07:33N 26°06' W 080°06'2 2.5
2014-Dec-17 06:33N 26°04' W 080°08'0 0.0
2014-Dec-17 05:33N 26°04' W 080°08'0 0.0
2014-Dec-17 04:33N 26°04' W 080°08'0 0.0
2014-Dec-17 03:33N 26°04' W 080°08'0 0.0
2014-Dec-17 02:33N 26°04' W 080°08'3 2.7
2014-Dec-17 01:33N 26°06' W 080°06'10 9.9
2014-Dec-17 00:33N 26°02' W 079°55'10 9.7
2014-Dec-16 23:33N 26°00' W 079°45'9 9.4
2014-Dec-16 22:33N 25°58' W 079°35'  
2014-Dec-13 19:23N 25°48' W 079°39'7 8.6
2014-Dec-13 18:33N 25°52' W 079°45'9 8.7
2014-Dec-13 17:33N 25°57' W 079°53'10 9.9
2014-Dec-13 16:33N 26°03' W 080°02'5 5.4
2014-Dec-13 15:33N 26°04' W 080°08'0 0.1
2014-Dec-13 14:33N 26°04' W 080°08'0 0.0
2014-Dec-13 13:33N 26°04' W 080°08'0 0.0
2014-Dec-13 12:33N 26°04' W 080°08'0 0.0
2014-Dec-13 11:33N 26°04' W 080°08'0 0.0
2014-Dec-13 10:33N 26°04' W 080°08'0 0.0
2014-Dec-13 09:33N 26°04' W 080°08'0 0.0
2014-Dec-13 08:33N 26°04' W 080°08'0 0.0
2014-Dec-13 07:33N 26°04' W 080°08'0 0.0
2014-Dec-13 06:33N 26°04' W 080°08'0 0.0
2014-Dec-13 05:33N 26°04' W 080°08'0 0.0
2014-Dec-13 04:33N 26°04' W 080°08'0 0.0
2014-Dec-13 03:33N 26°04' W 080°08'3 3.2
2014-Dec-13 02:33N 26°05' W 080°05'1110.9
2014-Dec-13 01:33N 26°00' W 079°54'1211.7
2014-Dec-13 00:33N 25°55' W 079°42'8 0.3
2014-Dec-11 21:20N 25°48' W 079°39'7 9.3
2014-Dec-11 20:33N 25°52' W 079°46'9 9.2
2014-Dec-11 19:33N 25°57' W 079°54'1010.1
2014-Dec-11 18:33N 26°04' W 080°03'4 3.9
2014-Dec-11 17:33N 26°04' W 080°07'0 0.1
2014-Dec-11 16:33N 26°04' W 080°07'1 1.1
2014-Dec-11 15:33N 26°04' W 080°08'0 0.0
2014-Dec-11 14:33N 26°04' W 080°08'0 0.0
2014-Dec-11 13:33N 26°04' W 080°08'0 0.0
2014-Dec-11 12:33N 26°04' W 080°08'0 0.0
2014-Dec-11 11:33N 26°04' W 080°08'0 0.0
2014-Dec-11 10:33N 26°04' W 080°08'0 0.0
2014-Dec-11 09:33N 26°04' W 080°08'0 0.0
2014-Dec-11 08:33N 26°04' W 080°08'0 0.0
2014-Dec-11 07:33N 26°04' W 080°08'0 0.0
2014-Dec-11 06:33N 26°04' W 080°08'2 1.8
2014-Dec-11 05:33N 26°05' W 080°07'10 9.8
2014-Dec-11 04:33N 26°01' W 079°57'1010.5
2014-Dec-11 03:33N 26°00' W 079°45'1110.7
2014-Dec-11 02:33N 25°57' W 079°34'  
Track history (hours):
 
Tides and Currents Weather Stations Pressure Air Temp Water Temp Dewpoint Dewpoint Depression Visibility Wind Speed Wind Dir Waves Ship Positions

Cape Express

Last reported at 2014-Dec-20 19:29 UTC. Time now 2014-Dec-21 05:29 UTC.
Position N 25°50' W 079°35'.

Length 29 m; draft 2.2 m.

Type: Cargo ship. MMSI: 370269000.

Date/timePositionNaut miles runAvg speedWind from/ knotsBaromVisibWave heightAir tempDewpointWater temp
2014-Dec-20 19:29N 25°50' W 079°35'8 9.1
2014-Dec-20 18:33N 25°54' W 079°43'9 8.5
2014-Dec-20 17:33N 25°59' W 079°51'8 8.4
2014-Dec-20 16:33N 26°03' W 079°59'7 6.8
2014-Dec-20 15:33N 26°04' W 080°07'1 1.0
2014-Dec-20 14:33N 26°04' W 080°08'0 0.0
2014-Dec-20 13:33N 26°04' W 080°08'0 0.0
2014-Dec-20 12:33N 26°04' W 080°08'0 0.0
2014-Dec-20 11:33N 26°04' W 080°08'0 0.0
2014-Dec-20 10:33N 26°04' W 080°08'0 0.0
2014-Dec-20 09:33N 26°04' W 080°08'0 0.0
2014-Dec-20 08:33N 26°04' W 080°08'0 0.0
2014-Dec-20 07:33N 26°04' W 080°08'0 0.0
2014-Dec-20 06:33N 26°04' W 080°08'0 0.0
2014-Dec-20 05:33N 26°04' W 080°08'0 0.0
2014-Dec-20 04:33N 26°04' W 080°08'0 0.0
2014-Dec-20 03:33N 26°04' W 080°08'2 2.2
2014-Dec-20 02:33N 26°06' W 080°07'1111.1
2014-Dec-20 01:33N 26°01' W 079°56'1212.0
2014-Dec-20 00:33N 25°54' W 079°44'6 0.2
2014-Dec-18 18:33N 25°49' W 079°41'9 8.6
2014-Dec-18 17:33N 25°54' W 079°49'8 8.3
2014-Dec-18 16:33N 25°60' W 079°56'9 8.8
2014-Dec-18 15:33N 26°05' W 080°04'3 3.5
2014-Dec-18 14:33N 26°04' W 080°08'0 0.0
2014-Dec-18 13:33N 26°04' W 080°08'0 0.0
2014-Dec-18 12:33N 26°04' W 080°08'0 0.0
2014-Dec-18 11:33N 26°04' W 080°08'0 0.0
2014-Dec-18 10:33N 26°04' W 080°08'0 0.0
2014-Dec-18 09:33N 26°04' W 080°08'0 0.0
2014-Dec-18 08:33N 26°04' W 080°08'0 0.0
2014-Dec-18 07:33N 26°04' W 080°08'0 0.0
2014-Dec-18 06:33N 26°04' W 080°08'0 0.0
2014-Dec-18 05:33N 26°04' W 080°08'0 0.0
2014-Dec-18 04:33N 26°04' W 080°08'0 0.0
2014-Dec-18 03:33N 26°04' W 080°08'0 0.0
2014-Dec-18 02:33N 26°04' W 080°08'0 0.0
2014-Dec-18 01:33N 26°04' W 080°08'0 0.0
2014-Dec-18 00:33N 26°04' W 080°08'0 0.0
2014-Dec-17 23:33N 26°04' W 080°08'1 1.3
2014-Dec-17 22:33N 26°05' W 080°07'8 8.0
2014-Dec-17 21:33N 26°02' W 079°58'1010.2
2014-Dec-17 20:33N 25°57' W 079°48'1010.2
2014-Dec-17 19:33N 25°52' W 079°38'5 0.6
2014-Dec-17 11:33N 25°49' W 079°34'9 8.8
2014-Dec-17 10:33N 25°53' W 079°43'8 7.6
2014-Dec-17 09:33N 25°57' W 079°50'8 7.9
2014-Dec-17 08:33N 26°01' W 079°57'9 9.1
2014-Dec-17 07:33N 26°06' W 080°06'2 2.5
2014-Dec-17 06:33N 26°04' W 080°08'0 0.0
2014-Dec-17 05:33N 26°04' W 080°08'0 0.0
2014-Dec-17 04:33N 26°04' W 080°08'0 0.0
2014-Dec-17 03:33N 26°04' W 080°08'0 0.0
2014-Dec-17 02:33N 26°04' W 080°08'3 2.7
2014-Dec-17 01:33N 26°06' W 080°06'10 9.9
2014-Dec-17 00:33N 26°02' W 079°55'10 9.7
2014-Dec-16 23:33N 26°00' W 079°45'9 9.4
2014-Dec-16 22:33N 25°58' W 079°35'  
2014-Dec-13 19:23N 25°48' W 079°39'7 8.6
2014-Dec-13 18:33N 25°52' W 079°45'9 8.7
2014-Dec-13 17:33N 25°57' W 079°53'10 9.9
2014-Dec-13 16:33N 26°03' W 080°02'5 5.4
2014-Dec-13 15:33N 26°04' W 080°08'0 0.1
2014-Dec-13 14:33N 26°04' W 080°08'0 0.0
2014-Dec-13 13:33N 26°04' W 080°08'0 0.0
2014-Dec-13 12:33N 26°04' W 080°08'0 0.0
2014-Dec-13 11:33N 26°04' W 080°08'0 0.0
2014-Dec-13 10:33N 26°04' W 080°08'0 0.0
2014-Dec-13 09:33N 26°04' W 080°08'0 0.0
2014-Dec-13 08:33N 26°04' W 080°08'0 0.0
2014-Dec-13 07:33N 26°04' W 080°08'0 0.0
2014-Dec-13 06:33N 26°04' W 080°08'0 0.0
2014-Dec-13 05:33N 26°04' W 080°08'0 0.0
2014-Dec-13 04:33N 26°04' W 080°08'0 0.0
2014-Dec-13 03:33N 26°04' W 080°08'3 3.2
2014-Dec-13 02:33N 26°05' W 080°05'1110.9
2014-Dec-13 01:33N 26°00' W 079°54'1211.7
2014-Dec-13 00:33N 25°55' W 079°42'8 0.3
2014-Dec-11 21:20N 25°48' W 079°39'7 9.3
2014-Dec-11 20:33N 25°52' W 079°46'9 9.2
2014-Dec-11 19:33N 25°57' W 079°54'1010.1
2014-Dec-11 18:33N 26°04' W 080°03'4 3.9
2014-Dec-11 17:33N 26°04' W 080°07'0 0.1
2014-Dec-11 16:33N 26°04' W 080°07'1 1.1
2014-Dec-11 15:33N 26°04' W 080°08'0 0.0
2014-Dec-11 14:33N 26°04' W 080°08'0 0.0
2014-Dec-11 13:33N 26°04' W 080°08'0 0.0
2014-Dec-11 12:33N 26°04' W 080°08'0 0.0
2014-Dec-11 11:33N 26°04' W 080°08'0 0.0
2014-Dec-11 10:33N 26°04' W 080°08'0 0.0
2014-Dec-11 09:33N 26°04' W 080°08'0 0.0
2014-Dec-11 08:33N 26°04' W 080°08'0 0.0
2014-Dec-11 07:33N 26°04' W 080°08'0 0.0
2014-Dec-11 06:33N 26°04' W 080°08'2 1.8
2014-Dec-11 05:33N 26°05' W 080°07'10 9.8
2014-Dec-11 04:33N 26°01' W 079°57'1010.5
2014-Dec-11 03:33N 26°00' W 079°45'1110.7
2014-Dec-11 02:33N 25°57' W 079°34'  

Dump ship's entire track history